WXM80 ListenWXM80 Stop

You find our weather info also at:

UK Metoffice

WeatherCloud

Weather Underground

Northeastern Weather Network

AWEKAS

Citizen Weather Observer Program (CWOP)

HAMweather, WeatherForYou, PWS Weather


Weather Underground History page Text

Daily Summary for October 27, 2016 Units:  English    Metric   Both
« Previous Day
Next Day »
Daily Weekly Monthly Yearly Custom
  High: Low: Average:
Temperature: 57.6 °F 41.9 °F 45.6 °F
Dew Point: 57.0 °F 28.2 °F 40.2 °F
Humidity: 98 % 55 % 82 %
Wind Speed: 9.0 mph 0.0 mph 2.1 mph
Wind Gust: 13.8 mph - -
Wind:- - East
Pressure: 30.44 in 29.95 in -
Precipitation: 0.99 in    
Historical Graphs
 
 
Tabular Data for October 27, 2016
Time Temperature Dew Point Pressure Wind Wind Speed Wind Gust Humidity Rainfall Rate (Hourly)
00:00 43.4 °F 28.7 °F 30.42 in North 3.6 mph 6.9 mph 56 % 0.00 in
00:05 43.4 °F 28.3 °F 30.42 in ENE 4.1 mph 6.9 mph 55 % 0.00 in
00:10 43.4 °F 28.3 °F 30.42 in ENE 6.1 mph 8.1 mph 55 % 0.00 in
00:15 43.4 °F 28.7 °F 30.42 in NNE 4.1 mph 6.0 mph 56 % 0.00 in
00:20 43.4 °F 28.3 °F 30.42 in ENE 4.2 mph 6.9 mph 55 % 0.00 in
00:25 43.3 °F 28.2 °F 30.42 in NE 1.0 mph 9.0 mph 55 % 0.00 in
00:30 43.3 °F 28.2 °F 30.42 in ENE 3.0 mph 8.0 mph 55 % 0.00 in
00:35 43.3 °F 28.6 °F 30.42 in NNE 3.5 mph 5.8 mph 56 % 0.00 in
00:40 43.3 °F 28.6 °F 30.42 in NE 2.0 mph 9.0 mph 56 % 0.00 in
00:45 43.3 °F 29.1 °F 30.43 in NE 1.0 mph 5.0 mph 57 % 0.00 in
00:50 43.3 °F 29.5 °F 30.43 in ENE 3.3 mph 4.6 mph 58 % 0.00 in
00:55 43.3 °F 28.6 °F 30.43 in ENE 3.0 mph 8.0 mph 56 % 0.00 in
01:00 43.4 °F 28.7 °F 30.43 in ENE 3.2 mph 4.6 mph 56 % 0.00 in
01:05 43.4 °F 28.7 °F 30.43 in NE 3.0 mph 9.0 mph 56 % 0.00 in
01:10 43.4 °F 28.7 °F 30.42 in NE 2.0 mph 4.0 mph 56 % 0.00 in
01:15 43.4 °F 28.7 °F 30.42 in NE 5.0 mph 9.0 mph 56 % 0.00 in
01:20 43.5 °F 29.3 °F 30.42 in ENE 4.4 mph 8.1 mph 57 % 0.00 in
01:25 43.5 °F 28.8 °F 30.42 in ENE 5.0 mph 8.0 mph 56 % 0.00 in
01:30 43.5 °F 29.3 °F 30.42 in ENE 3.0 mph 7.0 mph 57 % 0.00 in
01:35 43.5 °F 29.3 °F 30.42 in ENE 2.2 mph 8.1 mph 57 % 0.00 in
01:40 43.6 °F 29.4 °F 30.42 in ENE 5.0 mph 9.0 mph 57 % 0.00 in
01:45 43.6 °F 28.9 °F 30.42 in ENE 3.0 mph 8.0 mph 56 % 0.00 in
01:50 43.6 °F 29.4 °F 30.42 in ENE 1.6 mph 5.0 mph 57 % 0.00 in
01:55 43.6 °F 29.8 °F 30.42 in ENE 2.0 mph 5.0 mph 58 % 0.00 in
02:00 43.6 °F 30.2 °F 30.42 in NE 2.4 mph 4.6 mph 59 % 0.00 in
02:06 43.7 °F 30.7 °F 30.42 in NE 5.5 mph 9.2 mph 60 % 0.00 in
02:11 43.7 °F 31.1 °F 30.42 in ENE 3.7 mph 5.8 mph 61 % 0.00 in
02:16 43.7 °F 30.7 °F 30.43 in NE 5.2 mph 8.1 mph 60 % 0.00 in
02:21 43.7 °F 30.7 °F 30.43 in ENE 2.4 mph 6.9 mph 60 % 0.00 in
02:26 43.8 °F 31.2 °F 30.42 in ENE 0.9 mph 2.3 mph 61 % 0.00 in
02:31 43.8 °F 30.8 °F 30.42 in ENE 4.1 mph 9.2 mph 60 % 0.00 in
02:36 43.8 °F 30.4 °F 30.42 in ENE 2.2 mph 6.9 mph 59 % 0.00 in
02:41 43.9 °F 30.9 °F 30.43 in ENE 2.5 mph 3.5 mph 60 % 0.00 in
02:46 43.9 °F 30.9 °F 30.42 in NE 3.2 mph 4.6 mph 60 % 0.00 in
02:51 43.9 °F 30.9 °F 30.42 in ENE 2.5 mph 4.6 mph 60 % 0.00 in
02:57 43.9 °F 31.3 °F 30.42 in East 2.6 mph 5.8 mph 61 % 0.00 in
03:02 43.9 °F 30.5 °F 30.42 in ENE 3.8 mph 5.0 mph 59 % 0.00 in
03:07 43.9 °F 30.9 °F 30.42 in East 2.2 mph 4.6 mph 60 % 0.00 in
03:12 44.0 °F 31.4 °F 30.42 in East 0.5 mph 2.3 mph 61 % 0.00 in
03:17 43.9 °F 30.9 °F 30.41 in ENE 1.9 mph 4.0 mph 60 % 0.00 in
03:22 43.9 °F 31.3 °F 30.42 in NE 1.4 mph 5.8 mph 61 % 0.00 in
03:27 43.9 °F 31.3 °F 30.41 in NNE 3.1 mph 5.8 mph 61 % 0.00 in
03:32 44.0 °F 33.0 °F 30.41 in NE 4.2 mph 7.0 mph 65 % 0.00 in
03:37 44.0 °F 33.0 °F 30.40 in NE 5.8 mph 8.1 mph 65 % 0.00 in
03:42 44.0 °F 33.4 °F 30.41 in ENE 5.0 mph 10.4 mph 66 % 0.00 in
03:48 44.0 °F 33.4 °F 30.40 in ENE 4.7 mph 8.1 mph 66 % 0.00 in
03:53 44.0 °F 33.7 °F 30.41 in NE 4.1 mph 9.2 mph 67 % 0.00 in
03:58 44.0 °F 33.7 °F 30.40 in NE 3.1 mph 5.8 mph 67 % 0.00 in
04:03 44.0 °F 33.7 °F 30.39 in ENE 7.3 mph 11.5 mph 67 % 0.00 in
04:08 43.9 °F 33.6 °F 30.39 in East 6.1 mph 11.0 mph 67 % 0.00 in
04:13 43.8 °F 33.9 °F 30.40 in ENE 6.5 mph 10.4 mph 68 % 0.00 in
04:18 43.8 °F 33.6 °F 30.40 in ENE 2.8 mph 8.1 mph 67 % 0.00 in
04:23 43.8 °F 33.9 °F 30.40 in East 4.4 mph 6.9 mph 68 % 0.00 in
04:28 43.7 °F 33.5 °F 30.41 in ENE 1.5 mph 8.1 mph 67 % 0.00 in
04:33 43.7 °F 33.5 °F 30.41 in ENE 1.6 mph 4.6 mph 67 % 0.00 in
04:39 43.6 °F 33.0 °F 30.42 in ENE 3.4 mph 5.0 mph 66 % 0.00 in
04:44 43.6 °F 33.7 °F 30.41 in East 5.8 mph 9.2 mph 68 % 0.00 in
04:49 43.5 °F 33.6 °F 30.41 in ENE 5.7 mph 11.5 mph 68 % 0.00 in
04:54 43.5 °F 33.6 °F 30.41 in ENE 5.1 mph 8.1 mph 68 % 0.00 in
04:59 43.4 °F 33.2 °F 30.41 in ENE 5.7 mph 8.1 mph 67 % 0.00 in
05:04 43.4 °F 32.8 °F 30.41 in East 5.1 mph 8.0 mph 66 % 0.00 in
05:09 43.4 °F 32.8 °F 30.41 in ENE 5.3 mph 7.0 mph 66 % 0.00 in
05:14 43.4 °F 33.2 °F 30.41 in ENE 2.1 mph 8.1 mph 67 % 0.00 in
05:19 43.3 °F 32.3 °F 30.41 in ENE 4.0 mph 9.0 mph 65 % 0.00 in
05:24 43.3 °F 32.7 °F 30.41 in ENE 1.9 mph 3.0 mph 66 % 0.00 in
05:30 43.3 °F 32.7 °F 30.42 in ENE 6.0 mph 8.1 mph 66 % 0.00 in
05:35 43.3 °F 32.7 °F 30.42 in ENE 2.2 mph 3.5 mph 66 % 0.00 in
05:40 43.2 °F 33.0 °F 30.42 in ENE 1.8 mph 3.0 mph 67 % 0.00 in
05:45 43.2 °F 33.0 °F 30.42 in ENE 1.3 mph 2.3 mph 67 % 0.00 in
05:50 43.1 °F 32.9 °F 30.42 in ENE 1.5 mph 3.5 mph 67 % 0.00 in
05:55 43.1 °F 33.3 °F 30.42 in ENE 2.3 mph 5.0 mph 68 % 0.00 in
06:00 43.1 °F 33.3 °F 30.42 in ENE 1.9 mph 3.5 mph 68 % 0.00 in
06:05 43.1 °F 32.9 °F 30.43 in ENE 4.3 mph 6.9 mph 67 % 0.00 in
06:10 43.1 °F 32.9 °F 30.42 in NE 2.5 mph 3.5 mph 67 % 0.00 in
06:15 43.1 °F 32.9 °F 30.42 in ENE 2.1 mph 3.5 mph 67 % 0.00 in
06:20 43.0 °F 32.8 °F 30.42 in ENE 5.8 mph 11.0 mph 67 % 0.00 in
06:25 43.0 °F 33.2 °F 30.42 in ENE 2.7 mph 4.0 mph 68 % 0.00 in
06:30 43.0 °F 33.1 °F 30.42 in ENE 3.0 mph 7.0 mph 68 % 0.00 in
06:36 43.0 °F 33.2 °F 30.43 in ENE 3.4 mph 6.9 mph 68 % 0.00 in
06:41 43.0 °F 33.5 °F 30.42 in East 2.2 mph 3.5 mph 69 % 0.00 in
06:46 43.0 °F 33.5 °F 30.42 in ENE 3.6 mph 7.0 mph 69 % 0.00 in
06:51 43.0 °F 33.5 °F 30.42 in ENE 2.2 mph 3.5 mph 69 % 0.00 in
06:56 43.0 °F 33.5 °F 30.42 in ENE 5.9 mph 9.2 mph 69 % 0.00 in
07:01 43.0 °F 33.2 °F 30.42 in ENE 4.4 mph 9.0 mph 68 % 0.00 in
07:06 43.0 °F 33.9 °F 30.42 in ENE 3.0 mph 8.0 mph 70 % 0.00 in
07:11 43.0 °F 33.5 °F 30.42 in ENE 6.9 mph 9.2 mph 69 % 0.00 in
07:16 43.0 °F 33.5 °F 30.41 in ENE 9.0 mph 11.0 mph 69 % 0.00 in
07:21 43.0 °F 33.5 °F 30.41 in ENE 3.2 mph 10.4 mph 69 % 0.00 in
07:27 43.0 °F 33.9 °F 30.41 in ENE 3.2 mph 5.0 mph 70 % 0.00 in
07:32 43.1 °F 34.0 °F 30.41 in ENE 3.4 mph 5.8 mph 70 % 0.00 in
07:42 43.1 °F 34.0 °F 30.41 in ENE 1.9 mph 3.5 mph 70 % 0.00 in
07:47 43.1 °F 34.3 °F 30.42 in East 2.2 mph 3.5 mph 71 % 0.00 in
07:52 43.2 °F 34.1 °F 30.42 in ENE 2.2 mph 3.5 mph 70 % 0.00 in
07:57 43.3 °F 34.2 °F 30.42 in East 1.4 mph 3.5 mph 70 % 0.00 in
08:02 43.3 °F 33.8 °F 30.42 in East 1.0 mph 2.3 mph 69 % 0.00 in
08:07 43.3 °F 34.2 °F 30.42 in East 1.8 mph 3.5 mph 70 % 0.00 in
08:13 43.4 °F 34.3 °F 30.42 in East 1.4 mph 3.5 mph 70 % 0.00 in
08:18 43.4 °F 34.3 °F 30.42 in East 1.5 mph 3.5 mph 70 % 0.00 in
08:23 43.5 °F 34.4 °F 30.42 in ENE 3.0 mph 4.6 mph 70 % 0.00 in
08:28 43.6 °F 34.8 °F 30.42 in ENE 2.6 mph 3.5 mph 71 % 0.00 in
08:33 43.7 °F 34.9 °F 30.42 in ENE 2.4 mph 3.5 mph 71 % 0.00 in
08:38 43.7 °F 34.9 °F 30.42 in ENE 1.0 mph 3.5 mph 71 % 0.00 in
08:43 43.8 °F 35.0 °F 30.43 in ENE 1.2 mph 2.3 mph 71 % 0.00 in
08:48 43.9 °F 35.1 °F 30.43 in East 1.5 mph 3.5 mph 71 % 0.00 in
08:53 43.9 °F 35.1 °F 30.43 in East 1.3 mph 2.3 mph 71 % 0.00 in
08:58 44.0 °F 35.2 °F 30.43 in ENE 3.0 mph 5.0 mph 71 % 0.00 in
09:04 44.0 °F 34.8 °F 30.43 in ENE 2.0 mph 4.6 mph 70 % 0.00 in
09:09 44.1 °F 35.3 °F 30.43 in ENE 1.4 mph 3.5 mph 71 % 0.00 in
09:14 44.2 °F 35.4 °F 30.43 in ENE 1.4 mph 3.5 mph 71 % 0.00 in
09:19 44.2 °F 35.4 °F 30.44 in ENE 1.7 mph 3.5 mph 71 % 0.00 in
09:24 44.2 °F 35.4 °F 30.44 in ENE 1.1 mph 2.3 mph 71 % 0.00 in
09:29 44.3 °F 35.8 °F 30.44 in NE 3.9 mph 9.2 mph 72 % 0.00 in
09:34 44.3 °F 36.5 °F 30.43 in ENE 3.9 mph 8.0 mph 74 % 0.00 in
09:39 44.2 °F 36.8 °F 30.43 in ENE 1.3 mph 3.5 mph 75 % 0.00 in
09:44 44.1 °F 37.0 °F 30.43 in East 1.8 mph 2.3 mph 76 % 0.00 in
09:49 44.1 °F 37.3 °F 30.42 in East 2.2 mph 3.5 mph 77 % 0.00 in
09:55 43.9 °F 37.5 °F 30.42 in East 2.5 mph 4.6 mph 78 % 0.00 in
10:00 43.8 °F 38.0 °F 30.41 in East 2.9 mph 3.5 mph 80 % 0.00 in
10:05 43.6 °F 38.2 °F 30.41 in ESE 2.8 mph 4.6 mph 81 % 0.00 in
10:10 43.5 °F 38.4 °F 30.41 in East 1.5 mph 3.5 mph 82 % 0.00 in
10:15 43.4 °F 38.3 °F 30.41 in SE 2.2 mph 4.0 mph 82 % 0.00 in
10:25 43.3 °F 38.8 °F 30.41 in SE 0.2 mph 3.5 mph 84 % 0.00 in
10:30 43.2 °F 38.7 °F 30.41 in SE 0.7 mph 3.5 mph 84 % 0.00 in
10:35 43.1 °F 38.6 °F 30.41 in SE 0.3 mph 3.5 mph 84 % 0.00 in
10:40 42.9 °F 39.0 °F 30.41 in SE 1.0 mph 4.0 mph 86 % 0.00 in
10:45 42.8 °F 38.9 °F 30.40 in SE 1.0 mph 2.0 mph 86 % 0.00 in
10:50 42.7 °F 39.1 °F 30.40 in Calm   2.0 mph 87 % 0.00 in
10:55 42.5 °F 38.9 °F 30.41 in Calm   1.0 mph 87 % 0.00 in
11:01 42.4 °F 39.1 °F 30.41 in SE 0.4 mph 2.3 mph 88 % 0.02 in
11:06 42.4 °F 39.1 °F 30.41 in ESE 0.1 mph 1.2 mph 88 % 0.02 in
11:11 42.4 °F 39.4 °F 30.40 in SE 0.2 mph 3.5 mph 89 % 0.02 in
11:16 42.3 °F 39.3 °F 30.40 in SE 0.1 mph 2.3 mph 89 % 0.02 in
11:21 42.3 °F 39.3 °F 30.40 in SE 0.2 mph 1.2 mph 89 % 0.02 in
11:26 42.3 °F 39.3 °F 30.40 in SE 0.4 mph 1.2 mph 89 % 0.02 in
11:31 42.2 °F 39.5 °F 30.39 in Calm   2.3 mph 90 % 0.03 in
11:36 42.2 °F 39.5 °F 30.39 in East 0.6 mph 1.2 mph 90 % 0.03 in
11:41 42.2 °F 39.5 °F 30.39 in East 0.6 mph 2.3 mph 90 % 0.02 in
11:46 42.2 °F 39.5 °F 30.38 in East 1.3 mph 2.3 mph 90 % 0.03 in
11:51 42.2 °F 39.8 °F 30.38 in East 1.9 mph 3.0 mph 91 % 0.03 in
11:56 42.2 °F 39.8 °F 30.38 in East 2.1 mph 3.5 mph 91 % 0.03 in
12:02 42.2 °F 39.8 °F 30.38 in East 2.2 mph 4.6 mph 91 % 0.03 in
12:07 42.2 °F 39.8 °F 30.38 in ESE 1.5 mph 3.5 mph 91 % 0.03 in
12:12 42.1 °F 39.7 °F 30.37 in East 1.2 mph 3.5 mph 91 % 0.04 in
12:17 42.1 °F 39.9 °F 30.36 in East 1.3 mph 2.3 mph 92 % 0.04 in
12:22 42.1 °F 39.9 °F 30.36 in ESE 1.1 mph 4.6 mph 92 % 0.04 in
12:27 42.1 °F 39.9 °F 30.35 in East 1.1 mph 3.5 mph 92 % 0.04 in
12:37 42.3 °F 40.4 °F 30.35 in East 1.2 mph 3.5 mph 93 % 0.03 in
12:42 42.5 °F 40.6 °F 30.34 in East 1.2 mph 3.5 mph 93 % 0.03 in
12:47 42.5 °F 40.6 °F 30.34 in SE 1.5 mph 3.5 mph 93 % 0.02 in
12:53 42.5 °F 40.6 °F 30.33 in ESE 1.7 mph 3.5 mph 93 % 0.01 in
12:58 42.6 °F 40.7 °F 30.32 in East 1.5 mph 3.5 mph 93 % 0.01 in
13:03 42.6 °F 40.4 °F 30.31 in ESE 2.6 mph 4.6 mph 92 % 0.01 in
13:08 42.6 °F 40.4 °F 30.30 in East 1.3 mph 4.6 mph 92 % 0.00 in
13:13 42.7 °F 40.5 °F 30.30 in East 1.6 mph 3.5 mph 92 % 0.00 in
13:23 42.4 °F 40.0 °F 30.31 in East 1.3 mph 3.5 mph 91 % 0.00 in
13:28 42.3 °F 39.9 °F 30.31 in ESE 1.7 mph 3.5 mph 91 % 0.00 in
13:33 42.2 °F 39.8 °F 30.31 in East 1.5 mph 4.6 mph 91 % 0.00 in
13:38 42.1 °F 39.7 °F 30.30 in East 1.9 mph 3.5 mph 91 % 0.00 in
13:44 42.0 °F 39.6 °F 30.30 in ENE 1.4 mph 3.5 mph 91 % 0.00 in
13:49 42.0 °F 39.6 °F 30.29 in East 1.4 mph 5.0 mph 91 % 0.00 in
13:54 41.9 °F 39.5 °F 30.30 in East 0.9 mph 2.3 mph 91 % 0.00 in
13:59 41.9 °F 39.5 °F 30.30 in East 2.1 mph 3.5 mph 91 % 0.00 in
14:04 41.9 °F 39.7 °F 30.30 in East 1.2 mph 2.3 mph 92 % 0.00 in
14:09 41.9 °F 39.7 °F 30.30 in ESE 0.7 mph 2.3 mph 92 % 0.01 in
14:14 41.9 °F 39.7 °F 30.30 in East 0.5 mph 2.3 mph 92 % 0.01 in
14:19 41.9 °F 39.7 °F 30.29 in East 1.6 mph 3.0 mph 92 % 0.01 in
14:24 42.0 °F 40.1 °F 30.28 in East 2.8 mph 5.0 mph 93 % 0.02 in
14:29 42.0 °F 40.1 °F 30.27 in East 1.9 mph 3.5 mph 93 % 0.03 in
14:34 42.0 °F 40.1 °F 30.27 in East 1.2 mph 2.3 mph 93 % 0.03 in
14:40 42.1 °F 40.5 °F 30.27 in East 1.9 mph 4.6 mph 94 % 0.03 in
14:45 42.1 °F 40.5 °F 30.27 in ESE 1.4 mph 3.5 mph 94 % 0.04 in
14:50 42.2 °F 40.6 °F 30.27 in ESE 1.5 mph 3.5 mph 94 % 0.04 in
14:55 42.2 °F 40.6 °F 30.27 in East 1.9 mph 3.5 mph 94 % 0.04 in
15:00 42.2 °F 40.6 °F 30.27 in ESE 1.2 mph 2.3 mph 94 % 0.04 in
15:05 42.2 °F 40.6 °F 30.26 in East 2.0 mph 3.5 mph 94 % 0.03 in
15:10 42.3 °F 40.7 °F 30.26 in East 2.2 mph 3.5 mph 94 % 0.03 in
15:15 42.3 °F 40.7 °F 30.25 in ENE 3.9 mph 5.0 mph 94 % 0.03 in
15:20 42.3 °F 40.7 °F 30.25 in ENE 1.5 mph 3.5 mph 94 % 0.04 in
15:25 42.4 °F 41.1 °F 30.24 in East 3.9 mph 6.9 mph 95 % 0.03 in
15:30 42.4 °F 41.1 °F 30.23 in ENE 2.5 mph 3.5 mph 95 % 0.02 in
15:35 42.5 °F 41.2 °F 30.23 in East 3.3 mph 4.6 mph 95 % 0.02 in
15:40 42.6 °F 41.3 °F 30.23 in East 2.0 mph 5.0 mph 95 % 0.00 in
15:45 42.7 °F 41.4 °F 30.23 in East 2.0 mph 5.0 mph 95 % 0.00 in
15:55 42.8 °F 41.5 °F 30.23 in East 2.0 mph 6.0 mph 95 % 0.00 in
16:01 42.9 °F 41.6 °F 30.24 in ESE 0.6 mph 3.5 mph 95 % 0.01 in
16:06 43.0 °F 41.7 °F 30.24 in ESE 1.3 mph 3.5 mph 95 % 0.01 in
16:12 43.1 °F 41.8 °F 30.24 in ESE 0.1 mph 1.2 mph 95 % 0.01 in
16:17 43.1 °F 42.0 °F 30.23 in East 1.6 mph 3.5 mph 96 % 0.01 in
16:22 43.2 °F 42.1 °F 30.23 in East 0.5 mph 2.0 mph 96 % 0.00 in
16:27 43.2 °F 42.1 °F 30.22 in East 1.6 mph 2.3 mph 96 % 0.00 in
16:32 43.3 °F 42.2 °F 30.22 in East 0.9 mph 2.3 mph 96 % 0.00 in
16:37 43.4 °F 42.3 °F 30.22 in ESE 1.0 mph 2.3 mph 96 % 0.00 in
16:42 43.4 °F 42.3 °F 30.22 in ESE 0.2 mph 1.2 mph 96 % 0.00 in
16:47 43.5 °F 42.4 °F 30.22 in Calm   1.2 mph 96 % 0.00 in
16:52 43.6 °F 42.5 °F 30.21 in SE 0.1 mph 1.2 mph 96 % 0.00 in
16:58 43.8 °F 42.7 °F 30.20 in ESE 0.3 mph 2.3 mph 96 % 0.00 in
17:03 43.9 °F 42.8 °F 30.19 in ESE 1.0 mph 3.5 mph 96 % 0.00 in
17:08 44.0 °F 42.9 °F 30.19 in East 1.9 mph 3.5 mph 96 % 0.00 in
17:13 44.2 °F 43.1 °F 30.19 in East 1.0 mph 2.3 mph 96 % 0.01 in
17:15 44.2 °F 43.1 °F 30.19 in East 1.0 mph 3.5 mph 96 % 0.01 in
17:21 44.4 °F 43.3 °F 30.19 in ESE 0.9 mph 2.3 mph 96 % 0.01 in
17:26 44.5 °F 43.4 °F 30.18 in SE 0.6 mph 3.5 mph 96 % 0.01 in
17:31 44.6 °F 43.5 °F 30.18 in East 0.4 mph 1.2 mph 96 % 0.01 in
17:36 44.7 °F 43.6 °F 30.17 in SE 0.2 mph 1.2 mph 96 % 0.01 in
17:41 44.9 °F 43.8 °F 30.17 in SE 0.8 mph 2.3 mph 96 % 0.01 in
17:46 45.1 °F 44.0 °F 30.17 in ESE 0.4 mph 2.3 mph 96 % 0.01 in
17:51 45.2 °F 44.4 °F 30.16 in ESE 0.2 mph 2.3 mph 97 % 0.01 in
17:56 45.4 °F 44.6 °F 30.16 in ESE 0.4 mph 1.2 mph 97 % 0.01 in
18:02 45.4 °F 44.6 °F 30.16 in ESE 0.5 mph 2.3 mph 97 % 0.02 in
18:07 45.5 °F 44.7 °F 30.16 in Calm     97 % 0.02 in
18:12 45.6 °F 44.8 °F 30.16 in Calm     97 % 0.02 in
18:17 45.7 °F 44.9 °F 30.16 in Calm   1.2 mph 97 % 0.02 in
18:22 45.8 °F 45.0 °F 30.15 in Calm   1.2 mph 97 % 0.02 in
18:27 46.0 °F 45.2 °F 30.15 in ESE 0.1 mph 1.2 mph 97 % 0.03 in
18:32 46.2 °F 45.4 °F 30.16 in East 0.9 mph 2.0 mph 97 % 0.03 in
18:37 46.5 °F 45.7 °F 30.16 in NE 2.3 mph 3.5 mph 97 % 0.03 in
18:42 46.7 °F 45.9 °F 30.16 in ENE 1.7 mph 2.0 mph 97 % 0.03 in
18:48 47.1 °F 46.3 °F 30.16 in ENE 0.6 mph 3.5 mph 97 % 0.03 in
18:53 47.5 °F 46.7 °F 30.16 in ENE 2.0 mph 5.0 mph 97 % 0.04 in
18:58 48.1 °F 47.6 °F 30.15 in ENE 0.2 mph 1.2 mph 98 % 0.04 in
19:03 48.5 °F 48.0 °F 30.15 in ENE 1.5 mph 3.5 mph 98 % 0.04 in
19:08 49.0 °F 48.2 °F 30.14 in ENE 1.8 mph 3.5 mph 97 % 0.04 in
19:13 49.5 °F 49.0 °F 30.14 in ENE 1.1 mph 3.5 mph 98 % 0.05 in
19:18 49.7 °F 49.2 °F 30.14 in ENE 1.1 mph 2.3 mph 98 % 0.04 in
19:23 50.0 °F 49.5 °F 30.14 in ENE 1.4 mph 2.3 mph 98 % 0.04 in
19:28 50.2 °F 49.7 °F 30.14 in ENE 1.3 mph 3.5 mph 98 % 0.04 in
19:33 50.3 °F 49.5 °F 30.13 in ENE 0.5 mph 2.3 mph 97 % 0.05 in
19:39 50.4 °F 49.9 °F 30.13 in ENE 1.3 mph 2.3 mph 98 % 0.07 in
19:44 50.5 °F 50.0 °F 30.12 in ENE 1.0 mph 2.3 mph 98 % 0.09 in
19:49 50.6 °F 50.1 °F 30.12 in East 0.3 mph 1.2 mph 98 % 0.10 in
19:54 50.8 °F 50.3 °F 30.11 in East 0.3 mph 2.3 mph 98 % 0.10 in
19:59 50.9 °F 50.4 °F 30.11 in East 1.1 mph 2.3 mph 98 % 0.09 in
20:04 51.0 °F 50.5 °F 30.10 in East 0.2 mph 2.3 mph 98 % 0.10 in
20:09 51.0 °F 50.5 °F 30.10 in East 1.1 mph 2.3 mph 98 % 0.11 in
20:14 51.0 °F 50.5 °F 30.09 in East 0.1 mph 1.2 mph 98 % 0.12 in
20:19 51.1 °F 50.6 °F 30.09 in ESE 0.5 mph 2.3 mph 98 % 0.13 in
20:24 51.2 °F 50.7 °F 30.09 in SE 1.4 mph 3.5 mph 98 % 0.13 in
20:30 51.3 °F 50.8 °F 30.09 in SE 0.2 mph 1.2 mph 98 % 0.13 in
20:35 51.4 °F 50.9 °F 30.08 in SE 0.5 mph 1.2 mph 98 % 0.12 in
20:40 51.5 °F 51.0 °F 30.07 in ENE 0.8 mph 2.3 mph 98 % 0.11 in
20:45 51.7 °F 51.2 °F 30.06 in ENE 0.3 mph 1.2 mph 98 % 0.11 in
20:50 51.8 °F 51.3 °F 30.06 in SE 0.5 mph 1.2 mph 98 % 0.11 in
20:55 51.9 °F 51.4 °F 30.06 in SE 0.3 mph 2.0 mph 98 % 0.10 in
21:00 52.1 °F 51.6 °F 30.05 in ESE 1.4 mph 3.5 mph 98 % 0.10 in
21:05 52.4 °F 51.9 °F 30.04 in East 1.6 mph 5.8 mph 98 % 0.12 in
21:10 52.6 °F 52.1 °F 30.04 in SE 3.8 mph 8.1 mph 98 % 0.12 in
21:15 52.8 °F 52.3 °F 30.03 in East 1.1 mph 3.0 mph 98 % 0.12 in
21:16 52.8 °F 52.3 °F 30.03 in East 0.8 mph 3.5 mph 98 % 0.12 in
21:17 52.8 °F 52.3 °F 30.03 in East 0.5 mph 2.3 mph 98 % 0.12 in
21:19 52.9 °F 52.4 °F 30.03 in ESE 1.5 mph 3.5 mph 98 % 0.13 in
21:20 52.9 °F 52.4 °F 30.03 in SSE 4.0 mph 7.0 mph 98 % 0.13 in
21:25 53.1 °F 52.6 °F 30.02 in SE 1.9 mph 4.0 mph 98 % 0.14 in
21:30 53.3 °F 52.8 °F 30.01 in ESE 4.4 mph 13.8 mph 98 % 0.14 in
21:35 53.6 °F 53.0 °F 30.01 in ESE 0.6 mph 5.8 mph 98 % 0.16 in
21:40 53.7 °F 53.1 °F 30.00 in ESE 2.8 mph 6.0 mph 98 % 0.17 in
21:41 53.7 °F 53.1 °F 30.00 in ESE 1.2 mph 5.8 mph 98 % 0.17 in
21:46 53.8 °F 53.2 °F 30.00 in SE 0.7 mph 5.8 mph 98 % 0.17 in
21:51 53.9 °F 53.3 °F 30.00 in SE 2.5 mph 5.8 mph 98 % 0.16 in
21:56 54.0 °F 53.4 °F 29.99 in SSE 1.2 mph 2.0 mph 98 % 0.19 in
22:02 54.1 °F 53.5 °F 29.99 in SSE 3.6 mph 8.1 mph 98 % 0.20 in
22:07 54.4 °F 53.8 °F 29.98 in SE 2.5 mph 4.0 mph 98 % 0.18 in
22:12 55.1 °F 54.5 °F 29.97 in SE 5.0 mph 10.4 mph 98 % 0.17 in
22:22 56.4 °F 55.8 °F 29.97 in SW 5.5 mph 11.5 mph 98 % 0.15 in
22:27 56.7 °F 56.1 °F 29.97 in WSW 2.8 mph 5.0 mph 98 % 0.15 in
22:32 57.0 °F 56.4 °F 29.96 in SSW 3.1 mph 5.8 mph 98 % 0.14 in
22:37 57.5 °F 56.9 °F 29.97 in WNW 6.4 mph 10.0 mph 98 % 0.13 in
22:42 57.6 °F 57.0 °F 29.97 in SW 5.2 mph 8.1 mph 98 % 0.21 in
22:47 57.6 °F 57.0 °F 29.97 in WNW 0.6 mph 3.5 mph 98 % 0.31 in
22:53 57.4 °F 56.8 °F 29.96 in West 0.1 mph 4.6 mph 98 % 0.41 in
22:58 57.3 °F 56.7 °F 29.97 in Calm     98 % 0.42 in
23:03 57.2 °F 56.6 °F 29.96 in Calm     98 % 0.41 in
23:08 57.1 °F 56.5 °F 29.96 in Calm     98 % 0.40 in
23:13 57.1 °F 56.5 °F 29.96 in Calm     98 % 0.39 in
23:18 57.0 °F 56.4 °F 29.96 in West 0.3 mph 1.2 mph 98 % 0.38 in
23:23 56.9 °F 56.3 °F 29.96 in West 2.3 mph 2.3 mph 98 % 0.39 in
23:28 56.8 °F 56.2 °F 29.96 in West 0.3 mph 2.0 mph 98 % 0.38 in
23:33 56.8 °F 56.2 °F 29.96 in WNW 0.6 mph 1.2 mph 98 % 0.38 in
23:38 56.7 °F 56.1 °F 29.96 in WNW 1.7 mph 3.0 mph 98 % 0.35 in
23:44 56.7 °F 56.1 °F 29.95 in WNW 1.3 mph 3.5 mph 98 % 0.22 in
23:49 56.6 °F 56.0 °F 29.95 in North 1.2 mph 5.0 mph 98 % 0.12 in
23:54 56.6 °F 56.0 °F 29.95 in SW 1.3 mph 3.5 mph 98 % 0.04 in
23:59 56.7 °F 56.1 °F 29.95 in Calm     98 % 0.01 in
Crab Meadow Weather
Compliments of Weather Underground - 3 mb

Script developed by  Jim McMurry - jmcmurry@mwt.net Adapted for the template by  Wim van der Kuil - Leuven-Template.eu

Weather Terms: Tornado - A violently rotating column of air, from a thunderstorm, in contact with the ground.